createdAt,value
2023-02-11T00:01:19.608Z,10.77
2023-02-11T00:03:46.779Z,9.73
2023-02-11T00:06:13.883Z,8.83
2023-02-11T00:08:40.865Z,7.07
2023-02-11T00:11:07.919Z,10.80
2023-02-11T00:13:34.877Z,6.47
2023-02-11T00:16:07.335Z,10.63
2023-02-11T00:18:34.329Z,10.87
2023-02-11T00:21:16.444Z,7.43
2023-02-11T00:23:44.046Z,21.57
2023-02-11T00:26:15.875Z,15.77
2023-02-11T00:28:43.840Z,10.10
2023-02-11T00:31:12.208Z,9.47
2023-02-11T00:33:39.189Z,13.60
2023-02-11T00:36:13.801Z,12.00
2023-02-11T00:38:43.841Z,9.53
2023-02-11T00:41:13.102Z,9.33
2023-02-11T00:43:40.770Z,12.47
2023-02-11T00:46:09.773Z,14.03
2023-02-11T00:48:36.980Z,10.83
2023-02-11T00:51:04.365Z,13.53
2023-02-11T00:53:32.953Z,13.20
2023-02-11T00:56:01.192Z,14.20
2023-02-11T00:58:28.648Z,9.33
2023-02-11T01:00:56.527Z,13.93
2023-02-11T01:03:24.802Z,10.03
2023-02-11T01:05:51.959Z,11.80
2023-02-11T01:08:19.266Z,10.63
2023-02-11T01:10:53.368Z,12.63
2023-02-11T01:13:21.165Z,13.10
2023-02-11T01:15:48.348Z,15.77
2023-02-11T01:18:15.446Z,10.70
2023-02-11T01:20:42.723Z,12.67
2023-02-11T01:23:09.564Z,14.50
2023-02-11T01:25:36.411Z,13.57
2023-02-11T01:28:04.186Z,9.67
2023-02-11T01:30:31.750Z,11.53
2023-02-11T01:32:58.686Z,11.93
2023-02-11T01:35:25.552Z,11.73
2023-02-11T01:37:52.662Z,12.47
2023-02-11T01:40:19.770Z,13.37
2023-02-11T01:42:49.402Z,13.77
2023-02-11T01:45:46.324Z,9.37
2023-02-11T01:48:18.146Z,14.70
2023-02-11T01:50:46.976Z,10.97
2023-02-11T01:53:33.588Z,10.53
2023-02-11T01:56:18.915Z,14.90
2023-02-11T01:58:49.158Z,10.53
2023-02-11T02:01:20.000Z,12.20
2023-02-11T02:03:50.132Z,11.00
2023-02-11T02:06:23.115Z,12.13
2023-02-11T02:09:00.250Z,11.47
2023-02-11T02:11:29.662Z,13.33
2023-02-11T02:13:56.810Z,13.83
2023-02-11T02:16:34.482Z,13.77
2023-02-11T02:19:20.425Z,11.93
2023-02-11T02:22:05.592Z,11.20
2023-02-11T02:24:57.876Z,10.40
2023-02-11T02:27:48.387Z,12.60
2023-02-11T02:30:49.511Z,14.00
2023-02-11T02:33:23.054Z,9.23
2023-02-11T02:36:14.150Z,13.03
2023-02-11T02:39:04.326Z,13.43
2023-02-11T02:41:34.454Z,15.73
2023-02-11T02:44:02.169Z,10.97
2023-02-11T02:46:32.738Z,11.63
2023-02-11T02:48:59.982Z,11.00
2023-02-11T02:52:12.052Z,11.63
2023-02-11T02:55:03.942Z,13.87
2023-02-11T02:57:48.997Z,10.67
2023-02-11T03:00:54.156Z,13.70
2023-02-11T03:03:36.059Z,12.47
2023-02-11T03:06:30.595Z,11.33
2023-02-11T03:09:06.089Z,13.47
2023-02-11T03:11:34.836Z,12.53
2023-02-11T03:14:04.672Z,13.30
2023-02-11T03:16:38.428Z,11.70
2023-02-11T03:19:26.589Z,14.67
2023-02-11T03:21:53.732Z,10.93
2023-02-11T03:24:34.284Z,10.50
2023-02-11T03:27:32.680Z,16.93
2023-02-11T03:30:06.460Z,9.17
2023-02-11T03:32:39.483Z,15.97
2023-02-11T03:35:27.297Z,14.87
2023-02-11T03:38:00.522Z,12.63
2023-02-11T03:40:32.694Z,14.13
2023-02-11T03:43:08.502Z,14.80
2023-02-11T03:45:39.070Z,10.23
2023-02-11T03:48:16.389Z,11.27
2023-02-11T03:50:45.727Z,12.63
2023-02-11T03:53:14.948Z,13.60
2023-02-11T03:55:44.096Z,14.00
2023-02-11T03:58:11.238Z,10.87
2023-02-11T04:00:41.101Z,11.70
2023-02-11T04:03:09.265Z,11.40
2023-02-11T04:05:36.405Z,12.87
2023-02-11T04:08:03.718Z,11.13
2023-02-11T04:10:30.737Z,12.17
2023-02-11T04:12:57.979Z,12.40
2023-02-11T04:15:25.438Z,13.97
2023-02-11T04:17:52.339Z,12.77
2023-02-11T04:20:19.382Z,12.30
2023-02-11T04:22:46.356Z,15.20
2023-02-11T04:25:13.168Z,13.50
2023-02-11T04:27:40.095Z,11.07
2023-02-11T04:30:10.065Z,11.47
2023-02-11T04:32:37.114Z,10.97
2023-02-11T04:35:04.283Z,12.40
2023-02-11T04:37:31.148Z,12.63
2023-02-11T04:39:58.059Z,9.90
2023-02-11T04:42:25.135Z,12.57
2023-02-11T04:44:52.110Z,12.80
2023-02-11T04:47:19.516Z,9.83
2023-02-11T04:49:46.504Z,10.03
2023-02-11T04:52:13.310Z,12.30
2023-02-11T04:54:40.699Z,11.23
2023-02-11T04:57:07.652Z,13.20
2023-02-11T04:59:34.597Z,10.03
2023-02-11T05:02:02.156Z,9.83
2023-02-11T05:04:29.038Z,10.07
2023-02-11T05:06:58.524Z,12.07
2023-02-11T05:09:25.599Z,10.10
2023-02-11T05:11:53.666Z,8.87
2023-02-11T05:14:20.728Z,8.83
2023-02-11T05:16:47.879Z,13.60
2023-02-11T05:19:14.789Z,11.50
2023-02-11T05:21:53.162Z,10.23
2023-02-11T05:24:24.054Z,13.97
2023-02-11T05:26:50.950Z,10.20
2023-02-11T05:29:17.802Z,10.17
2023-02-11T05:31:44.859Z,12.73
2023-02-11T05:34:11.815Z,11.73
2023-02-11T05:36:38.676Z,11.63
2023-02-11T05:39:05.650Z,9.30
2023-02-11T05:41:32.713Z,10.80
2023-02-11T05:43:59.625Z,11.87
2023-02-11T05:46:26.592Z,11.77
2023-02-11T05:48:54.408Z,10.30
2023-02-11T05:51:21.267Z,12.60
2023-02-11T05:53:48.188Z,12.77
2023-02-11T05:56:15.225Z,9.40
2023-02-11T05:58:42.042Z,11.43
2023-02-11T06:01:08.992Z,12.27
2023-02-11T06:03:35.937Z,8.17
2023-02-11T06:06:02.758Z,10.73
2023-02-11T06:08:29.589Z,12.50
2023-02-11T06:10:56.476Z,10.50
2023-02-11T06:13:23.334Z,11.87
2023-02-11T06:16:00.854Z,14.70
2023-02-11T06:18:29.521Z,12.27
2023-02-11T06:20:56.517Z,11.40
2023-02-11T06:23:23.577Z,12.07
2023-02-11T06:25:51.242Z,15.53
2023-02-11T06:28:18.934Z,12.83
2023-02-11T06:30:46.093Z,13.93
2023-02-11T06:33:13.019Z,11.97
2023-02-11T06:35:40.185Z,11.67
2023-02-11T06:38:07.335Z,11.40
2023-02-11T06:40:34.319Z,11.57
2023-02-11T06:43:01.252Z,12.17
2023-02-11T06:45:28.271Z,10.03
2023-02-11T06:47:55.177Z,12.43
2023-02-11T06:50:22.242Z,12.03
2023-02-11T06:52:49.220Z,14.10
2023-02-11T06:55:16.116Z,8.93
2023-02-11T06:57:43.311Z,10.53
2023-02-11T07:00:11.226Z,14.23
2023-02-11T07:02:38.076Z,13.20
2023-02-11T07:05:06.843Z,11.17
2023-02-11T07:07:34.546Z,15.97
2023-02-11T07:10:03.206Z,12.17
2023-02-11T07:12:31.162Z,8.73
2023-02-11T07:14:58.520Z,9.27
2023-02-11T07:17:25.360Z,11.57
2023-02-11T07:19:52.645Z,11.33
2023-02-11T07:22:19.865Z,10.10
2023-02-11T07:24:46.773Z,9.57
2023-02-11T07:27:13.737Z,11.83
2023-02-11T07:29:42.672Z,13.40
2023-02-11T07:32:10.611Z,13.03
2023-02-11T07:34:37.621Z,9.53
2023-02-11T07:37:05.001Z,11.97
2023-02-11T07:39:32.174Z,14.10
2023-02-11T07:41:59.854Z,11.47
2023-02-11T07:44:27.618Z,11.40
2023-02-11T07:46:54.646Z,12.57
2023-02-11T07:49:21.519Z,11.30
2023-02-11T07:51:50.069Z,11.20
2023-02-11T07:54:17.650Z,11.80
2023-02-11T07:56:44.577Z,10.90
2023-02-11T07:59:12.968Z,14.03
2023-02-11T08:01:40.190Z,10.20
2023-02-11T08:04:07.108Z,13.20
2023-02-11T08:06:35.500Z,16.00
2023-02-11T08:09:07.362Z,10.43
2023-02-11T08:11:34.254Z,14.30
2023-02-11T08:14:01.504Z,12.77
2023-02-11T08:16:31.009Z,10.43
2023-02-11T08:19:02.094Z,10.50
2023-02-11T08:21:30.098Z,8.83
2023-02-11T08:23:57.662Z,8.03
2023-02-11T08:26:30.225Z,12.37
2023-02-11T08:28:59.030Z,10.00
2023-02-11T08:31:40.759Z,9.93
2023-02-11T08:34:08.322Z,11.43
2023-02-11T08:36:39.123Z,8.83
2023-02-11T08:39:19.334Z,11.63
2023-02-11T08:41:52.530Z,10.13
2023-02-11T08:44:20.771Z,11.53
2023-02-11T08:46:48.546Z,11.87
2023-02-11T08:49:16.818Z,12.30
2023-02-11T08:51:44.452Z,12.13
2023-02-11T08:54:11.829Z,10.23
2023-02-11T08:56:39.126Z,15.77
2023-02-11T08:59:07.398Z,14.80
2023-02-11T09:01:34.828Z,14.03
2023-02-11T09:04:02.153Z,8.50
2023-02-11T09:06:29.537Z,10.80
2023-02-11T09:08:59.105Z,10.00
2023-02-11T09:11:35.311Z,9.47
2023-02-11T09:14:04.117Z,7.60
2023-02-11T09:16:34.031Z,9.57
2023-02-11T09:19:03.445Z,13.43
2023-02-11T09:21:30.823Z,8.13
2023-02-11T09:23:57.697Z,9.00
2023-02-11T09:26:27.910Z,9.77
2023-02-11T09:28:55.253Z,8.20
2023-02-11T09:31:24.897Z,9.40
2023-02-11T09:33:54.845Z,12.90
2023-02-11T09:36:25.565Z,10.87
2023-02-11T09:38:53.470Z,14.50
2023-02-11T09:41:23.345Z,8.47
2023-02-11T09:44:03.020Z,10.40
2023-02-11T09:46:34.550Z,8.17
2023-02-11T09:49:02.773Z,7.33
2023-02-11T09:51:39.458Z,9.37
2023-02-11T09:54:15.551Z,14.40
2023-02-11T09:56:42.695Z,10.17
2023-02-11T09:59:17.674Z,10.00
2023-02-11T10:01:51.173Z,11.60
2023-02-11T10:04:56.952Z,9.17
2023-02-11T10:07:25.483Z,8.77
2023-02-11T10:10:01.615Z,6.90
2023-02-11T10:12:55.320Z,6.97
2023-02-11T10:15:45.168Z,9.93
2023-02-11T10:18:30.634Z,5.60
2023-02-11T10:21:00.141Z,7.83
2023-02-11T10:23:33.639Z,8.87
2023-02-11T10:26:01.534Z,4.90
2023-02-11T10:28:32.766Z,9.27
2023-02-11T10:31:03.648Z,13.10
2023-02-11T10:33:51.595Z,7.27
2023-02-11T10:36:21.285Z,6.83
2023-02-11T10:38:48.110Z,7.23
2023-02-11T10:41:20.799Z,8.87
2023-02-11T10:43:48.237Z,7.83
2023-02-11T10:46:21.256Z,9.47
2023-02-11T10:48:53.304Z,7.87
2023-02-11T10:51:22.151Z,8.30
2023-02-11T10:54:13.812Z,6.57
2023-02-11T10:56:47.682Z,8.67
2023-02-11T10:59:31.926Z,13.87
2023-02-11T11:02:01.076Z,6.70
2023-02-11T11:04:30.821Z,7.10
2023-02-11T11:07:25.638Z,5.10
2023-02-11T11:10:05.199Z,6.67
2023-02-11T11:12:47.447Z,5.17
2023-02-11T11:15:23.695Z,7.77
2023-02-11T11:18:20.899Z,7.20
2023-02-11T11:21:05.869Z,6.33
2023-02-11T11:23:36.494Z,5.87
2023-02-11T11:26:12.809Z,6.10
2023-02-11T11:28:50.577Z,5.53
2023-02-11T11:31:22.210Z,7.33
2023-02-11T11:33:53.363Z,10.30
2023-02-11T11:36:23.841Z,8.50
2023-02-11T11:38:55.773Z,6.70
2023-02-11T11:41:34.875Z,4.13
2023-02-11T11:44:39.898Z,4.63
2023-02-11T11:47:13.446Z,7.20
2023-02-11T11:49:53.319Z,9.47
2023-02-11T11:52:32.210Z,10.47
2023-02-11T11:55:07.923Z,9.83
2023-02-11T11:57:38.741Z,5.33
2023-02-11T12:00:14.893Z,6.57
2023-02-11T12:03:00.915Z,7.63
2023-02-11T12:05:42.402Z,4.83
2023-02-11T12:08:21.355Z,11.10
2023-02-11T12:11:12.554Z,5.43
2023-02-11T12:13:54.711Z,5.90
2023-02-11T12:16:50.439Z,4.60
2023-02-11T12:19:35.533Z,9.20
2023-02-11T12:22:35.585Z,6.53
2023-02-11T12:25:26.693Z,3.50
2023-02-11T12:28:25.741Z,5.77
2023-02-11T12:31:07.840Z,8.50
2023-02-11T12:33:38.002Z,6.53
2023-02-11T12:36:20.223Z,9.37
2023-02-11T12:39:23.379Z,4.97
2023-02-11T12:42:34.184Z,7.93
2023-02-11T12:45:14.021Z,5.93
2023-02-11T12:48:11.554Z,10.47
2023-02-11T12:51:09.193Z,8.50
2023-02-11T12:53:42.271Z,5.73
2023-02-11T12:56:27.004Z,7.77
2023-02-11T12:58:57.841Z,6.07
2023-02-11T13:01:44.890Z,3.67
2023-02-11T13:04:54.162Z,9.63
2023-02-11T13:07:32.448Z,7.60
2023-02-11T13:10:26.265Z,6.43
2023-02-11T13:13:15.004Z,4.00
2023-02-11T13:15:46.781Z,4.03
2023-02-11T13:18:25.886Z,5.57
2023-02-11T13:21:16.579Z,7.13
2023-02-11T13:24:09.118Z,8.13
2023-02-11T13:27:02.026Z,6.07
2023-02-11T13:29:50.934Z,5.10
2023-02-11T13:32:17.895Z,7.17
2023-02-11T13:34:44.700Z,5.10
2023-02-11T13:37:39.778Z,7.83
2023-02-11T13:40:20.218Z,7.37
2023-02-11T13:42:53.176Z,4.30
2023-02-11T13:45:43.884Z,5.90
2023-02-11T13:48:27.700Z,6.73
2023-02-11T13:50:58.760Z,6.83
2023-02-11T13:53:27.618Z,8.53
2023-02-11T13:56:24.013Z,8.13
2023-02-11T13:58:51.630Z,7.13
2023-02-11T14:02:12.550Z,6.13
2023-02-11T14:05:36.843Z,6.90
2023-02-11T14:08:28.553Z,5.40
2023-02-11T14:11:30.649Z,7.87
2023-02-11T14:14:14.633Z,7.03
2023-02-11T14:17:00.296Z,7.30
2023-02-11T14:19:53.844Z,5.30
2023-02-11T14:22:28.761Z,2.83
2023-02-11T14:24:55.701Z,5.77
2023-02-11T14:27:40.289Z,5.03
2023-02-11T14:30:12.552Z,5.23
2023-02-11T14:33:09.347Z,7.40
2023-02-11T14:36:00.381Z,9.37
2023-02-11T14:38:34.276Z,4.20
2023-02-11T14:41:07.846Z,7.73
2023-02-11T14:43:43.247Z,6.23
2023-02-11T14:46:10.426Z,7.37
2023-02-11T14:48:39.450Z,7.87
2023-02-11T14:51:27.151Z,5.83
2023-02-11T14:54:01.965Z,4.40
2023-02-11T14:56:34.601Z,10.03
2023-02-11T14:59:02.837Z,5.57
2023-02-11T15:01:32.830Z,6.10
2023-02-11T15:04:01.632Z,4.93
2023-02-11T15:06:33.242Z,6.77
2023-02-11T15:09:08.059Z,9.47
2023-02-11T15:11:40.365Z,9.10
2023-02-11T15:14:17.002Z,6.57
2023-02-11T15:16:46.188Z,5.47
2023-02-11T15:19:35.866Z,4.33
2023-02-11T15:22:07.500Z,6.90
2023-02-11T15:24:35.642Z,4.87
2023-02-11T15:27:15.622Z,6.50
2023-02-11T15:29:51.989Z,7.90
2023-02-11T15:32:24.599Z,8.03
2023-02-11T15:34:53.951Z,7.33
2023-02-11T15:37:32.354Z,6.60
2023-02-11T15:40:19.130Z,5.90
2023-02-11T15:43:03.663Z,10.37
2023-02-11T15:45:44.578Z,8.23
2023-02-11T15:48:22.758Z,4.87
2023-02-11T15:50:59.178Z,6.37
2023-02-11T15:53:31.358Z,9.37
2023-02-11T15:56:21.443Z,6.87
2023-02-11T15:58:49.869Z,7.37
2023-02-11T16:01:17.249Z,10.00
2023-02-11T16:03:50.033Z,6.93
2023-02-11T16:06:21.851Z,10.17
2023-02-11T16:09:08.155Z,9.23
2023-02-11T16:11:53.761Z,8.53
2023-02-11T16:14:34.452Z,5.73
2023-02-11T16:17:26.144Z,8.13
2023-02-11T16:19:53.862Z,4.87
2023-02-11T16:22:27.744Z,10.80
2023-02-11T16:24:59.823Z,7.40
2023-02-11T16:27:34.173Z,5.97
2023-02-11T16:30:01.810Z,10.73
2023-02-11T16:32:30.539Z,8.27
2023-02-11T16:35:00.947Z,2.53
2023-02-11T16:37:28.253Z,7.17
2023-02-11T16:39:56.200Z,8.93
2023-02-11T16:42:23.560Z,6.70
2023-02-11T16:44:50.537Z,4.07
2023-02-11T16:47:25.316Z,7.47
2023-02-11T16:49:52.962Z,8.53
2023-02-11T16:52:22.291Z,7.27
2023-02-11T16:54:50.648Z,9.83
2023-02-11T16:57:28.103Z,9.60
2023-02-11T16:59:56.762Z,8.57
2023-02-11T17:02:27.408Z,9.70
2023-02-11T17:04:56.393Z,6.47
2023-02-11T17:07:23.313Z,5.93
2023-02-11T17:09:51.780Z,7.97
2023-02-11T17:12:19.244Z,7.83
2023-02-11T17:14:46.318Z,6.27
2023-02-11T17:17:13.930Z,5.67
2023-02-11T17:19:40.735Z,7.57
2023-02-11T17:22:07.791Z,6.70
2023-02-11T17:24:34.908Z,8.20
2023-02-11T17:27:02.286Z,7.53
2023-02-11T17:29:29.114Z,7.20
2023-02-11T17:31:57.152Z,3.67
2023-02-11T17:34:24.215Z,6.37
2023-02-11T17:36:51.906Z,8.67
2023-02-11T17:39:21.128Z,10.20
2023-02-11T17:41:48.543Z,3.70
2023-02-11T17:44:16.556Z,3.97
2023-02-11T17:46:43.758Z,7.73
2023-02-11T17:49:12.179Z,7.93
2023-02-11T17:51:39.845Z,8.67
2023-02-11T17:54:16.956Z,7.53
2023-02-11T17:56:44.998Z,5.47
2023-02-11T17:59:13.341Z,7.17
2023-02-11T18:01:41.841Z,5.90
2023-02-11T18:04:13.993Z,8.60
2023-02-11T18:06:41.234Z,9.23
2023-02-11T18:09:08.112Z,7.37
2023-02-11T18:11:38.121Z,5.70
2023-02-11T18:14:07.972Z,9.30
2023-02-11T18:16:36.795Z,8.53
2023-02-11T18:19:04.292Z,4.47
2023-02-11T18:21:31.479Z,6.20
2023-02-11T18:24:01.155Z,6.27
2023-02-11T18:26:31.589Z,4.73
2023-02-11T18:29:00.225Z,6.90
2023-02-11T18:31:28.302Z,7.07
2023-02-11T18:33:55.566Z,7.70
2023-02-11T18:36:23.453Z,7.00
2023-02-11T18:38:52.683Z,6.27
2023-02-11T18:41:20.049Z,5.10
2023-02-11T18:43:47.074Z,7.00
2023-02-11T18:46:15.621Z,6.20
2023-02-11T18:48:44.869Z,6.33
2023-02-11T18:51:18.483Z,7.27
2023-02-11T18:53:45.901Z,8.87
2023-02-11T18:56:15.744Z,6.87
2023-02-11T18:58:43.024Z,8.00
2023-02-11T19:01:18.573Z,6.60
2023-02-11T19:03:45.860Z,9.50
2023-02-11T19:06:34.755Z,4.50
2023-02-11T19:09:06.488Z,7.77
2023-02-11T19:11:54.297Z,6.53
2023-02-11T19:14:26.800Z,5.10
2023-02-11T19:16:56.410Z,10.30
2023-02-11T19:19:25.060Z,6.40
2023-02-11T19:21:52.176Z,6.27
2023-02-11T19:24:19.998Z,8.53
2023-02-11T19:26:48.968Z,6.10
2023-02-11T19:29:16.643Z,6.90
2023-02-11T19:31:44.046Z,5.43
2023-02-11T19:34:14.132Z,6.00
2023-02-11T19:36:41.454Z,7.23
2023-02-11T19:39:08.866Z,8.70
2023-02-11T19:41:36.183Z,6.47
2023-02-11T19:44:04.514Z,7.80
2023-02-11T19:46:36.480Z,8.17
2023-02-11T19:49:04.691Z,11.83
2023-02-11T19:51:33.846Z,8.33
2023-02-11T19:54:00.836Z,12.63
2023-02-11T19:56:31.284Z,14.97
2023-02-11T19:58:58.389Z,6.17
2023-02-11T20:01:26.301Z,6.57
2023-02-11T20:03:55.364Z,5.37
2023-02-11T20:06:25.179Z,7.30
2023-02-11T20:08:58.617Z,10.60
2023-02-11T20:11:28.249Z,8.27
2023-02-11T20:13:56.500Z,8.60
2023-02-11T20:16:40.702Z,9.57
2023-02-11T20:19:17.008Z,10.83
2023-02-11T20:21:47.192Z,5.53
2023-02-11T20:24:15.752Z,9.30
2023-02-11T20:26:42.923Z,7.63
2023-02-11T20:29:09.874Z,6.47
2023-02-11T20:31:37.155Z,6.27
2023-02-11T20:34:04.575Z,6.27
2023-02-11T20:36:35.742Z,6.33
2023-02-11T20:39:05.007Z,5.77
2023-02-11T20:41:34.910Z,3.33
2023-02-11T20:44:04.914Z,6.03
2023-02-11T20:46:34.044Z,6.13
2023-02-11T20:49:02.102Z,6.47
2023-02-11T20:51:31.760Z,7.03
2023-02-11T20:53:59.312Z,6.03
2023-02-11T20:56:33.140Z,5.63
2023-02-11T20:59:02.273Z,3.50
2023-02-11T21:01:40.293Z,5.03
2023-02-11T21:04:12.437Z,5.67
2023-02-11T21:06:45.010Z,4.73
2023-02-11T21:09:14.711Z,3.83
2023-02-11T21:11:42.175Z,7.63
2023-02-11T21:14:10.883Z,5.83
2023-02-11T21:16:39.264Z,5.40
2023-02-11T21:19:06.934Z,6.97
2023-02-11T21:21:36.324Z,10.33
2023-02-11T21:24:03.776Z,8.43
2023-02-11T21:26:30.782Z,5.83
2023-02-11T21:28:57.759Z,5.33
2023-02-11T21:31:27.000Z,4.53
2023-02-11T21:33:56.684Z,3.17
2023-02-11T21:36:24.439Z,2.23
2023-02-11T21:38:51.986Z,3.37
2023-02-11T21:41:22.579Z,2.67
2023-02-11T21:43:50.447Z,3.83
2023-02-11T21:46:18.668Z,2.63
2023-02-11T21:48:46.067Z,3.93
2023-02-11T21:51:22.788Z,2.60
2023-02-11T21:53:54.541Z,6.70
2023-02-11T21:56:22.240Z,3.17
2023-02-11T21:58:53.355Z,4.70
2023-02-11T22:01:23.077Z,5.17
2023-02-11T22:03:50.391Z,6.67
2023-02-11T22:06:23.452Z,3.40
2023-02-11T22:08:50.856Z,3.97
2023-02-11T22:11:19.401Z,6.27
2023-02-11T22:13:47.030Z,5.40
2023-02-11T22:16:16.780Z,3.50
2023-02-11T22:18:47.137Z,6.77
2023-02-11T22:21:16.903Z,6.60
2023-02-11T22:23:44.397Z,5.13
2023-02-11T22:26:16.636Z,4.90
2023-02-11T22:28:44.567Z,4.70
2023-02-11T22:31:14.118Z,4.33
2023-02-11T22:33:41.732Z,3.20
2023-02-11T22:36:14.664Z,4.93
2023-02-11T22:38:41.548Z,4.23
2023-02-11T22:41:10.053Z,5.70
2023-02-11T22:43:38.151Z,3.20
2023-02-11T22:46:07.368Z,6.60
2023-02-11T22:48:35.711Z,6.07
2023-02-11T22:51:11.586Z,6.60
2023-02-11T22:53:39.307Z,7.03
2023-02-11T22:56:09.130Z,6.03
2023-02-11T22:58:36.597Z,7.40
2023-02-11T23:01:05.111Z,7.53
2023-02-11T23:03:33.338Z,4.23
2023-02-11T23:06:01.356Z,6.80
2023-02-11T23:08:29.448Z,6.90
2023-02-11T23:10:56.738Z,7.30
2023-02-11T23:13:23.597Z,7.80
2023-02-11T23:15:50.668Z,6.67
2023-02-11T23:18:17.561Z,7.77
2023-02-11T23:20:45.245Z,9.90
2023-02-11T23:23:12.536Z,6.47
2023-02-11T23:25:44.187Z,6.43
2023-02-11T23:28:12.032Z,7.47
2023-02-11T23:30:39.574Z,6.80
2023-02-11T23:33:06.477Z,6.30
2023-02-11T23:35:33.429Z,4.73
2023-02-11T23:38:00.502Z,6.67
2023-02-11T23:40:27.472Z,3.97
2023-02-11T23:42:54.478Z,5.73
2023-02-11T23:45:21.720Z,4.30
2023-02-11T23:47:48.654Z,3.93
2023-02-11T23:50:15.764Z,4.63
2023-02-11T23:52:42.682Z,4.43
2023-02-11T23:55:09.824Z,4.00
2023-02-11T23:57:36.983Z,4.37
